EHGG

Eelde Airport

Groningen, The Netherlands
METAR EHGG 190855Z AUTO 07003KT 040V100 9999 OVC033 10/08 Q1027 NOSIG
Observed Flight Rules
Oct-19 @ 08:55 UTC (10 minutes ago) Visual Flight Rules
Wind Visibility Clouds
70° at 3 knots 10,000+ meters
  • Overcast at 3,300' AGL
Temperatures Readings
Current 10°C / 50°F
Dewpoint 8°C / 46°F
Humidity 88%
Altimeter 30.32" Hg
Pressure 1027 hPa
Elevation 4
METAR EHGG 190855Z AUTO 07003KT 040V100 9999 OVC033 10/08 Q1027 NOSIG
Observed Flight Rules
Oct-19 @ 08:55 UTC
(10 minutes ago)
VFR
Wind Visibility
70° at 3 knots 10,000+ meters
Clouds
  • Overcast at 3,300' AGL
Temperature Dewpoint
10°C / 50°F 8°C / 46°F
Humidity Altimeter Pressure
88% 30.32" Hg 1027 hPa